SCVD/ZAL METAR and TAF weather

Enter ICAO airport designator
Station Type Date Time Source
SCVD METAR 2022/07/01 02:00 UTC NOAA

SCVD 010200Z AUTO 03012KT 360V060 9999 FEW005 OVC024 06/06 Q0998 RERA


Station Type Date Time Source
SCVD Decoded METAR 2022/07/01 02:00 UTC NOAA

Valdivia, Chile (SCVD) 39-37S 073-05W
Jun 30, 2022 - 10:00 PM EDT / 2022.07.01 0200 UTC
Wind: from the NNE (030 degrees) at 14 MPH (12 KT) (direction variable):0
Visibility: greater than 7 mile(s):0
Sky conditions: overcast
Temperature: 42 F (6 C)
Dew Point: 42 F (6 C)
Relative Humidity: 100%
Pressure (altimeter): 29.47 in. Hg (0998 hPa)
ob: SCVD 010200Z AUTO 03012KT 360V060 9999 FEW005 OVC024 06/06 Q0998 RERA
cycle: 2

Station Type Date Time Source
SCVD TAF 2022/06/30 12:00 UTC NOAA

TAF SCVD 301038Z 3012/3024 12004KT 9999 SCT020 BKN050 BKN150 TN05/3012Z TX09/3018Z
TEMPO 3012/3013 5000 BR SCT005 SCT050
BECMG 3016/3018 05007KT SCT025 OVC080
BECMG 3019/3021 -RA SCT025 BKN040
BECMG 3022/3024 7000 FEW016 BKN020 OVC035

Example: see airport list